• Join FlightAware (Why Join?)
  • Login
  • US Flag 
03:24PM EDT


 

Airport Tracker/Info


-or-


 

Live Flight TrackerFlight Track Log ✈ SWA378 ✈ 15-May-2013 ✈ KSJC - KLAX

Flight Track Log - Related Links

Times and Time Zones

All times are in EDT time to prevent confusion due to time zone crossing. See the SWA378 flight status page for this flight to view local times or setup timezone preferences in your user account.

Time Position Orientation Groundspeed Altitude Reporting Facility
EDT Latitude Longitude Course Direction KTS MPH feet Rate Location/Type
11:41AM 37.4000 -121.9667 141° Southeast 179 206 2,300  Level Northern Cal TRACON
11:42AM 37.4333 -121.9333 38° Northeast 251 289 5,000 1,080 Climbing Northern Cal TRACON
11:44AM 37.3711 -121.8353 129° Southeast 249 287 5,000 1,380 Level Oakland Center
11:45AM 37.3131 -121.7700 138° Southeast 271 312 8,500 3,120 Climbing Oakland Center
11:46AM 37.2492 -121.6972 138° Southeast 298 343 11,400 3,060 Climbing Oakland Center
11:47AM 36.9254 -121.4554 141° Southeast  Level Estimated
11:47AM 37.1750 -121.6122 138° Southeast 347 399 14,800  Level Oakland Center
11:48AM 37.0961 -121.5239 138° Southeast 371 427 18,000 2,940 Climbing Oakland Center
11:49AM 37.0122 -121.4339 139° Southeast 391 450 20,900 2,760 Climbing Oakland Center
11:50AM 36.9233 -121.3353 138° Southeast 415 478 23,700 2,580 Climbing Oakland Center
11:51AM 36.8319 -121.2369 139° Southeast 430 495 26,300 2,400 Climbing Oakland Center
11:52AM 36.7178 -121.1142 139° Southeast 442 509 28,700 2,100 Climbing Oakland Center
11:53AM 36.6197 -121.0097 139° Southeast 452 520 30,700 1,980 Climbing Oakland Center
11:54AM 36.5206 -120.9006 138° Southeast 481 554 32,800 2,040 Climbing Oakland Center
11:55AM 36.4214 -120.7944 139° Southeast 470 541 34,900 2,040 Climbing Oakland Center
11:56AM 36.3272 -120.6919 139° Southeast 462 532 37,100 1,860 Climbing Oakland Center
11:57AM 36.2339 -120.5869 138° Southeast 460 529 38,800 900 Climbing Oakland Center
11:58AM 36.1397 -120.4894 140° Southeast 437 503 39,000 60 Climbing Oakland Center
11:59AM 36.0433 -120.3914 141° Southeast 437 503 39,000  Level Oakland Center
12:00PM 35.9469 -120.2903 140° Southeast 449 517 39,000  Level Oakland Center
12:01PM 35.8339 -120.1725 140° Southeast 442 509 39,000  Level Oakland Center
12:02PM 35.7403 -120.0758 140° Southeast 435 501 39,000  Level Oakland Center
12:03PM 35.6442 -119.9775 140° Southeast 444 511 39,000  Level Oakland Center
12:04PM 35.5422 -119.8883 145° Southeast 446 513 39,000  Level Oakland Center
12:05PM 35.4403 -119.8000 145° Southeast 446 513 39,000 -60 Level Oakland Center
12:06PM 35.3381 -119.7125 145° Southeast 446 513 38,900 -240 Descending Oakland Center
12:07PM 35.3178 -119.6947 144° Southeast 446 513 38,700 -960 Descending Los Angeles Center
12:08PM 35.2150 -119.6056 145° Southeast 449 517 37,700 -2,160 Descending Los Angeles Center
12:09PM 35.0897 -119.4994 145° Southeast 454 522 34,300 -3,180 Descending Los Angeles Center
12:10PM 34.9839 -119.4089 145° Southeast 461 531 31,200 -2,700 Descending Los Angeles Center
12:11PM 34.8800 -119.3203 145° Southeast 458 527 28,700 -2,400 Descending Los Angeles Center
12:12PM 34.7786 -119.2347 145° Southeast 445 512 26,300 -2,340 Descending Los Angeles Center
12:13PM 34.6797 -119.1514 145° Southeast 434 499 23,900 -2,400 Descending Los Angeles Center
12:14PM 34.5694 -119.0608 146° Southeast 423 487 21,400 -2,280 Descending Los Angeles Center
12:15PM 34.4769 -118.9833 145° Southeast 407 468 19,200 -2,160 Descending Los Angeles Center
12:16PM 34.3872 -118.9081 145° Southeast 395 455 17,000 -2,220 Descending Los Angeles Center
12:17PM 34.2908 -118.8572 156° South 380 437 14,700 -2,160 Descending Los Angeles Center
12:18PM 34.1722 -118.8144 163° South 371 427 12,500 -1,500 Descending Los Angeles Center
12:19PM 34.0842 -118.7808 162° South 334 384 11,600 -1,020 Descending Los Angeles Center
12:20PM 34.0331 -118.7069 130° Southeast 304 350 10,500 -900 Descending Los Angeles Center
12:21PM 34.0239 -118.6025 96° East 288 331 9,800 -780 Descending Los Angeles Center
12:22PM 34.0156 -118.5181 97° East 256 295 8,900 -960 Descending Los Angeles Center
12:23PM 34.0106 -118.4439 95° East 247 284 7,900 -1,140 Descending Los Angeles Center
12:24PM 34.0233 -118.3469 81° East 244 281 6,600 -1,200 Descending Los Angeles Center
12:25PM 34.0314 -118.2658 83° East 244 281 5,500 -1,380 Descending Los Angeles Center
12:26PM 34.0397 -118.1928 82° East 228 262 3,800 -1,440 Descending Los Angeles Center
12:27PM 34.0456 -118.1344 83° East 195 224 2,600 -600 Descending Los Angeles Center
12:28PM 33.9964 -118.1242 170° South 184 212 2,600 -240 Level Los Angeles Center
12:29PM 33.9833 -118.1500 239° Southwest 187 215 2,300 -420 Descending Southern California TRACON
12:29PM 33.9756 -118.1786 252° West 185 213 2,200 -60 Descending Los Angeles Center
12:30PM 33.9669 -118.2536 262° West 187 215 2,200 -300 Level Los Angeles Center
12:32PM 33.9631 -118.3044 265° West 170 196 1,700 -600 Descending Los Angeles Center
12:33PM 33.9578 -118.3494 262° West 149 171 1,000 -720 Descending Los Angeles Center
12:34PM 33.9533 -118.3958 263° West 143 165 200 -780 Descending Los Angeles Center
12:36PM 33.9333 -118.4000 246° West  Level FlightAware Approximate
12:43PM 33.9425 -118.4081 246° West  Level Estimated